createdAt,value
2019-01-29T00:00:23.424Z,952.25
2019-01-29T00:01:23.436Z,952.26
2019-01-29T00:02:23.403Z,952.27
2019-01-29T00:03:23.442Z,952.28
2019-01-29T00:04:23.460Z,952.31
2019-01-29T00:05:23.366Z,952.31
2019-01-29T00:06:23.357Z,952.29
2019-01-29T00:07:23.350Z,952.34
2019-01-29T00:08:23.392Z,952.29
2019-01-29T00:09:23.341Z,952.34
2019-01-29T00:10:23.320Z,952.34
2019-01-29T00:11:23.303Z,952.38
2019-01-29T00:12:23.309Z,952.38
2019-01-29T00:13:23.306Z,952.36
2019-01-29T00:14:23.289Z,952.37
2019-01-29T00:15:23.268Z,952.36
2019-01-29T00:16:23.247Z,952.39
2019-01-29T00:17:23.240Z,952.41
2019-01-29T00:18:23.227Z,952.40
2019-01-29T00:19:23.255Z,952.36
2019-01-29T00:20:23.218Z,952.43
2019-01-29T00:21:23.230Z,952.42
2019-01-29T00:22:23.185Z,952.39
2019-01-29T00:23:23.175Z,952.44
2019-01-29T00:24:23.185Z,952.41
2019-01-29T00:25:23.151Z,952.40
2019-01-29T00:26:23.142Z,952.40
2019-01-29T00:27:23.156Z,952.42
2019-01-29T00:28:23.118Z,952.42
2019-01-29T00:29:23.146Z,952.47
2019-01-29T00:30:24.576Z,952.39
2019-01-29T00:31:23.082Z,952.45
2019-01-29T00:32:23.091Z,952.47
2019-01-29T00:33:23.091Z,952.47
2019-01-29T00:34:23.075Z,952.48
2019-01-29T00:35:23.079Z,952.47
2019-01-29T00:36:23.116Z,952.48
2019-01-29T00:37:23.044Z,952.47
2019-01-29T00:38:23.046Z,952.52
2019-01-29T00:39:23.055Z,952.49
2019-01-29T00:40:22.988Z,952.46
2019-01-29T00:41:23.097Z,952.46
2019-01-29T00:42:22.973Z,952.54
2019-01-29T00:43:22.960Z,952.56
2019-01-29T00:44:22.946Z,952.56
2019-01-29T00:45:22.948Z,952.58
2019-01-29T00:46:22.933Z,952.62
2019-01-29T00:47:22.926Z,952.64
2019-01-29T00:48:22.905Z,952.62
2019-01-29T00:49:22.886Z,952.64
2019-01-29T00:50:22.874Z,952.67
2019-01-29T00:51:22.885Z,952.72
2019-01-29T00:52:22.859Z,952.67
2019-01-29T00:53:22.855Z,952.72
2019-01-29T00:54:22.838Z,952.69
2019-01-29T00:55:22.848Z,952.74
2019-01-29T00:56:22.808Z,952.76
2019-01-29T00:57:22.823Z,952.79
2019-01-29T00:58:22.792Z,952.77
2019-01-29T00:59:22.784Z,952.81
2019-01-29T01:00:22.785Z,952.85
2019-01-29T01:01:22.764Z,952.89
2019-01-29T01:02:22.774Z,952.85
2019-01-29T01:03:22.834Z,952.86
2019-01-29T01:04:22.740Z,952.90
2019-01-29T01:05:22.718Z,952.93
2019-01-29T01:06:22.698Z,953.00
2019-01-29T01:07:22.694Z,952.96
2019-01-29T01:08:22.685Z,952.91
2019-01-29T01:09:22.677Z,952.90
2019-01-29T01:10:22.684Z,952.92
2019-01-29T01:11:22.648Z,952.97
2019-01-29T01:12:22.685Z,952.98
2019-01-29T01:13:22.625Z,953.02
2019-01-29T01:14:22.614Z,952.96
2019-01-29T01:15:22.612Z,953.02
2019-01-29T01:16:22.600Z,953.06
2019-01-29T01:17:22.592Z,953.12
2019-01-29T01:18:22.600Z,953.11
2019-01-29T01:19:22.569Z,953.11
2019-01-29T01:20:22.546Z,953.17
2019-01-29T01:21:22.555Z,953.13
2019-01-29T01:22:22.544Z,953.17
2019-01-29T01:23:22.534Z,953.21
2019-01-29T01:24:22.544Z,953.16
2019-01-29T01:25:22.516Z,953.14
2019-01-29T01:26:22.489Z,953.25
2019-01-29T01:27:22.492Z,953.27
2019-01-29T01:28:22.486Z,953.28
2019-01-29T01:29:22.451Z,953.29
2019-01-29T01:30:22.451Z,953.31
2019-01-29T01:31:22.425Z,953.36
2019-01-29T01:32:22.415Z,953.32
2019-01-29T01:33:22.414Z,953.33
2019-01-29T01:34:22.430Z,953.39
2019-01-29T01:35:22.391Z,953.38
2019-01-29T01:36:22.413Z,953.38
2019-01-29T01:37:22.403Z,953.41
2019-01-29T01:38:22.358Z,953.41
2019-01-29T01:39:22.346Z,953.39
2019-01-29T01:40:22.363Z,953.41
2019-01-29T01:41:22.346Z,953.40
2019-01-29T01:42:22.310Z,953.44
2019-01-29T01:43:22.304Z,953.40
2019-01-29T01:44:22.317Z,953.42
2019-01-29T01:45:22.277Z,953.48
2019-01-29T01:46:22.267Z,953.44
2019-01-29T01:47:22.253Z,953.45
2019-01-29T01:48:22.242Z,953.52
2019-01-29T01:49:22.236Z,953.53
2019-01-29T01:50:22.243Z,953.53
2019-01-29T01:51:22.211Z,953.58
2019-01-29T01:52:22.213Z,953.48
2019-01-29T01:53:22.199Z,953.51
2019-01-29T01:54:22.186Z,953.51
2019-01-29T01:55:22.196Z,953.55
2019-01-29T01:56:22.155Z,953.52
2019-01-29T01:57:22.151Z,953.50
2019-01-29T01:58:22.140Z,953.50
2019-01-29T01:59:22.123Z,953.48
2019-01-29T02:00:22.157Z,953.57
2019-01-29T02:01:22.100Z,953.49
2019-01-29T02:02:22.087Z,953.54
2019-01-29T02:03:22.097Z,953.55
2019-01-29T02:04:22.111Z,953.55
2019-01-29T02:05:22.056Z,953.52
2019-01-29T02:06:22.054Z,953.55
2019-01-29T02:07:22.050Z,953.47
2019-01-29T02:08:22.020Z,953.56
2019-01-29T02:09:22.071Z,953.56
2019-01-29T02:10:22.020Z,953.54
2019-01-29T02:11:22.025Z,953.50
2019-01-29T02:12:21.980Z,953.53
2019-01-29T02:13:21.973Z,953.48
2019-01-29T02:14:22.012Z,953.52
2019-01-29T02:15:21.958Z,953.60
2019-01-29T02:16:21.970Z,953.55
2019-01-29T02:17:21.959Z,953.58
2019-01-29T02:18:21.952Z,953.61
2019-01-29T02:19:21.922Z,953.59
2019-01-29T02:20:21.909Z,953.63
2019-01-29T02:21:21.905Z,953.60
2019-01-29T02:22:21.884Z,953.58
2019-01-29T02:23:21.908Z,953.60
2019-01-29T02:24:21.862Z,953.64
2019-01-29T02:25:21.855Z,953.67
2019-01-29T02:26:21.863Z,953.70
2019-01-29T02:27:21.842Z,953.67
2019-01-29T02:28:21.815Z,953.66
2019-01-29T02:29:21.802Z,953.70
2019-01-29T02:30:21.793Z,953.69
2019-01-29T02:31:21.785Z,953.75
2019-01-29T02:32:21.791Z,953.69
2019-01-29T02:33:21.761Z,953.71
2019-01-29T02:34:21.747Z,953.75
2019-01-29T02:35:21.758Z,953.77
2019-01-29T02:36:21.714Z,953.77
2019-01-29T02:37:21.729Z,953.80
2019-01-29T02:38:21.710Z,953.77
2019-01-29T02:39:21.693Z,953.76
2019-01-29T02:40:21.672Z,953.75
2019-01-29T02:41:21.667Z,953.76
2019-01-29T02:42:21.663Z,953.70
2019-01-29T02:43:21.641Z,953.76
2019-01-29T02:44:21.634Z,953.76
2019-01-29T02:45:21.615Z,953.77
2019-01-29T02:46:21.609Z,953.79
2019-01-29T02:47:21.614Z,953.82
2019-01-29T02:48:21.595Z,953.79
2019-01-29T02:49:21.572Z,953.85
2019-01-29T02:50:21.565Z,953.80
2019-01-29T02:51:21.553Z,953.81
2019-01-29T02:52:21.544Z,953.83
2019-01-29T02:53:21.554Z,953.87
2019-01-29T02:54:21.523Z,953.78
2019-01-29T02:55:21.515Z,953.82
2019-01-29T02:56:21.531Z,953.86
2019-01-29T02:57:21.507Z,953.82
2019-01-29T02:58:21.531Z,953.93
2019-01-29T02:59:21.502Z,953.90
2019-01-29T03:00:21.471Z,953.88
2019-01-29T03:01:21.452Z,953.89
2019-01-29T03:02:21.447Z,953.99
2019-01-29T03:03:21.437Z,953.96
2019-01-29T03:04:21.446Z,953.99
2019-01-29T03:05:21.400Z,953.98
2019-01-29T03:06:21.395Z,954.02
2019-01-29T03:07:21.397Z,953.98
2019-01-29T03:08:21.365Z,953.98
2019-01-29T03:09:21.369Z,954.05
2019-01-29T03:10:21.352Z,954.01
2019-01-29T03:11:21.349Z,954.01
2019-01-29T03:12:21.325Z,954.11
2019-01-29T03:13:21.312Z,954.07
2019-01-29T03:14:21.305Z,954.06
2019-01-29T03:15:21.302Z,954.11
2019-01-29T03:16:21.301Z,954.12
2019-01-29T03:17:21.272Z,954.13
2019-01-29T03:18:21.258Z,954.16
2019-01-29T03:19:21.310Z,954.18
2019-01-29T03:20:21.243Z,954.25
2019-01-29T03:21:21.224Z,954.18
2019-01-29T03:22:21.251Z,954.31
2019-01-29T03:23:27.230Z,954.30
2019-01-29T03:24:22.193Z,954.26
2019-01-29T03:25:21.197Z,954.31
2019-01-29T03:26:21.190Z,954.36
2019-01-29T03:27:21.159Z,954.26
2019-01-29T03:28:21.161Z,954.39
2019-01-29T03:29:21.138Z,954.34
2019-01-29T03:30:21.152Z,954.39
2019-01-29T03:31:21.152Z,954.42
2019-01-29T03:32:21.110Z,954.47
2019-01-29T03:33:21.108Z,954.49
2019-01-29T03:34:21.088Z,954.44
2019-01-29T03:35:21.083Z,954.47
2019-01-29T03:36:21.065Z,954.49
2019-01-29T03:37:21.062Z,954.45
2019-01-29T03:38:21.041Z,954.47
2019-01-29T03:39:21.029Z,954.50
2019-01-29T03:40:21.022Z,954.43
2019-01-29T03:41:21.036Z,954.49
2019-01-29T03:42:21.017Z,954.50
2019-01-29T03:43:20.981Z,954.50
2019-01-29T03:44:20.989Z,954.55
2019-01-29T03:45:20.982Z,954.56
2019-01-29T03:46:20.957Z,954.53
2019-01-29T03:47:20.946Z,954.52
2019-01-29T03:48:20.930Z,954.57
2019-01-29T03:49:20.924Z,954.64
2019-01-29T03:50:20.923Z,954.65
2019-01-29T03:51:20.898Z,954.61
2019-01-29T03:52:20.891Z,954.53
2019-01-29T03:53:20.872Z,954.63
2019-01-29T03:54:20.864Z,954.63
2019-01-29T03:55:20.866Z,954.63
2019-01-29T03:56:20.842Z,954.63
2019-01-29T03:57:20.833Z,954.68
2019-01-29T03:58:20.819Z,954.67
2019-01-29T03:59:20.807Z,954.62
2019-01-29T04:00:20.799Z,954.68
2019-01-29T04:01:20.788Z,954.69
2019-01-29T04:02:20.795Z,954.75
2019-01-29T04:03:20.767Z,954.68
2019-01-29T04:04:20.756Z,954.72
2019-01-29T04:05:20.740Z,954.77
2019-01-29T04:06:20.742Z,954.73
2019-01-29T04:07:20.723Z,954.73
2019-01-29T04:08:20.744Z,954.81
2019-01-29T04:09:20.709Z,954.73
2019-01-29T04:10:20.722Z,954.86
2019-01-29T04:11:20.681Z,954.79
2019-01-29T04:12:20.686Z,954.84
2019-01-29T04:13:20.665Z,954.85
2019-01-29T04:14:20.648Z,954.83
2019-01-29T04:15:20.652Z,954.88
2019-01-29T04:16:20.621Z,954.83
2019-01-29T04:17:20.615Z,954.82
2019-01-29T04:18:20.604Z,954.83
2019-01-29T04:19:20.590Z,954.93
2019-01-29T04:20:20.721Z,954.86
2019-01-29T04:21:21.530Z,954.90
2019-01-29T04:22:20.581Z,954.96
2019-01-29T04:23:20.573Z,954.85
2019-01-29T04:24:20.553Z,954.88
2019-01-29T04:25:20.534Z,954.92
2019-01-29T04:26:20.518Z,954.95
2019-01-29T04:27:20.523Z,954.90
2019-01-29T04:28:20.549Z,954.89
2019-01-29T04:29:20.494Z,954.92
2019-01-29T04:30:20.480Z,954.93
2019-01-29T04:31:20.478Z,954.89
2019-01-29T04:32:20.506Z,954.90
2019-01-29T04:33:20.442Z,954.91
2019-01-29T04:34:20.445Z,954.88
2019-01-29T04:35:20.428Z,954.99
2019-01-29T04:36:20.408Z,955.02
2019-01-29T04:37:20.408Z,954.95
2019-01-29T04:38:20.386Z,955.02
2019-01-29T04:39:20.390Z,954.99
2019-01-29T04:40:20.367Z,954.99
2019-01-29T04:41:20.362Z,955.01
2019-01-29T04:42:20.339Z,955.04
2019-01-29T04:43:20.355Z,955.01
2019-01-29T04:44:20.335Z,955.03
2019-01-29T04:45:20.320Z,955.05
2019-01-29T04:46:20.300Z,954.98
2019-01-29T04:47:20.282Z,955.04
2019-01-29T04:48:20.275Z,955.01
2019-01-29T04:49:20.279Z,955.14
2019-01-29T04:50:20.294Z,955.06
2019-01-29T04:51:20.262Z,955.05
2019-01-29T04:52:20.229Z,955.09
2019-01-29T04:53:20.253Z,955.09
2019-01-29T04:54:20.215Z,955.02
2019-01-29T04:55:20.198Z,955.06
2019-01-29T04:56:20.233Z,955.01
2019-01-29T04:57:20.217Z,955.04
2019-01-29T04:58:20.164Z,955.04
2019-01-29T04:59:20.160Z,955.06
2019-01-29T05:00:20.162Z,955.06
2019-01-29T05:01:20.167Z,955.06
2019-01-29T05:02:20.132Z,955.11
2019-01-29T05:03:20.128Z,955.06
2019-01-29T05:04:20.138Z,955.11
2019-01-29T05:05:20.092Z,955.09
2019-01-29T05:06:20.124Z,955.09
2019-01-29T05:07:20.067Z,955.07
2019-01-29T05:08:20.066Z,955.15
2019-01-29T05:09:20.065Z,955.13
2019-01-29T05:10:20.033Z,955.12
2019-01-29T05:11:20.034Z,955.10
2019-01-29T05:12:20.038Z,955.14
2019-01-29T05:13:20.012Z,955.08
2019-01-29T05:14:20.002Z,955.14
2019-01-29T05:15:20.028Z,955.09
2019-01-29T05:16:19.974Z,955.11
2019-01-29T05:17:19.966Z,955.10
2019-01-29T05:18:19.957Z,955.06
2019-01-29T05:19:19.971Z,955.14
2019-01-29T05:20:19.945Z,955.14
2019-01-29T05:21:19.914Z,955.10
2019-01-29T05:22:19.946Z,955.20
2019-01-29T05:23:19.902Z,955.20
2019-01-29T05:24:19.893Z,955.23
2019-01-29T05:25:19.897Z,955.24
2019-01-29T05:26:19.879Z,955.25
2019-01-29T05:27:19.863Z,955.26
2019-01-29T05:28:19.837Z,955.21
2019-01-29T05:29:19.841Z,955.26
2019-01-29T05:30:20.742Z,955.25
2019-01-29T05:31:19.820Z,955.22
2019-01-29T05:32:19.832Z,955.29
2019-01-29T05:33:19.810Z,955.27
2019-01-29T05:34:19.797Z,955.27
2019-01-29T05:35:19.775Z,955.25
2019-01-29T05:36:19.753Z,955.27
2019-01-29T05:37:19.741Z,955.29
2019-01-29T05:38:19.742Z,955.33
2019-01-29T05:39:19.715Z,955.32
2019-01-29T05:40:19.708Z,955.32
2019-01-29T05:41:19.728Z,955.39
2019-01-29T05:42:19.701Z,955.36
2019-01-29T05:43:19.701Z,955.38
2019-01-29T05:44:19.678Z,955.35
2019-01-29T05:45:19.666Z,955.36
2019-01-29T05:46:19.724Z,955.40
2019-01-29T05:47:19.640Z,955.40
2019-01-29T05:48:19.630Z,955.45
2019-01-29T05:49:19.638Z,955.46
2019-01-29T05:50:20.548Z,955.41
2019-01-29T05:51:19.605Z,955.43
2019-01-29T05:52:19.586Z,955.45
2019-01-29T05:53:19.586Z,955.52
2019-01-29T05:54:19.565Z,955.55
2019-01-29T05:55:19.548Z,955.49
2019-01-29T05:56:19.546Z,955.51
2019-01-29T05:57:19.529Z,955.57
2019-01-29T05:58:19.529Z,955.53
2019-01-29T05:59:19.522Z,955.55
2019-01-29T06:00:19.503Z,955.61
2019-01-29T06:01:19.505Z,955.54
2019-01-29T06:02:19.467Z,955.60
2019-01-29T06:03:19.483Z,955.63
2019-01-29T06:04:19.465Z,955.62
2019-01-29T06:05:19.513Z,955.61
2019-01-29T06:06:19.466Z,955.66
2019-01-29T06:07:19.416Z,955.68
2019-01-29T06:08:19.461Z,955.64
2019-01-29T06:09:19.403Z,955.66
2019-01-29T06:10:19.420Z,955.65
2019-01-29T06:11:19.394Z,955.66
2019-01-29T06:12:19.370Z,955.70
2019-01-29T06:13:19.363Z,955.67
2019-01-29T06:14:19.332Z,955.67
2019-01-29T06:15:19.343Z,955.68
2019-01-29T06:16:19.349Z,955.72
2019-01-29T06:17:27.164Z,955.70
2019-01-29T06:18:20.305Z,955.72
2019-01-29T06:19:19.352Z,955.75
2019-01-29T06:20:19.320Z,955.77
2019-01-29T06:21:19.295Z,955.80
2019-01-29T06:22:19.285Z,955.75
2019-01-29T06:23:19.249Z,955.80
2019-01-29T06:24:25.620Z,955.82
2019-01-29T06:25:20.221Z,955.85
2019-01-29T06:26:19.271Z,955.85
2019-01-29T06:27:19.207Z,955.80
2019-01-29T06:28:19.195Z,955.83
2019-01-29T06:29:19.173Z,955.86
2019-01-29T06:30:19.181Z,955.89
2019-01-29T06:31:19.164Z,955.90
2019-01-29T06:32:19.160Z,955.89
2019-01-29T06:33:19.138Z,955.89
2019-01-29T06:34:19.130Z,955.94
2019-01-29T06:35:19.127Z,956.00
2019-01-29T06:36:19.116Z,955.99
2019-01-29T06:37:19.090Z,956.02
2019-01-29T06:38:19.162Z,955.95
2019-01-29T06:39:19.072Z,955.99
2019-01-29T06:40:19.056Z,955.97
2019-01-29T06:41:19.065Z,955.98
2019-01-29T06:42:19.038Z,956.01
2019-01-29T06:43:19.049Z,956.00
2019-01-29T06:44:19.071Z,955.99
2019-01-29T06:45:19.013Z,956.04
2019-01-29T06:46:18.985Z,956.00
2019-01-29T06:47:18.978Z,956.04
2019-01-29T06:48:19.005Z,955.99
2019-01-29T06:49:19.026Z,956.06
2019-01-29T06:50:18.972Z,956.10
2019-01-29T06:51:18.948Z,956.05
2019-01-29T06:52:18.942Z,956.06
2019-01-29T06:53:18.918Z,956.10
2019-01-29T06:54:18.915Z,956.13
2019-01-29T06:55:18.907Z,956.11
2019-01-29T06:56:18.958Z,956.08
2019-01-29T06:57:18.870Z,956.16
2019-01-29T06:58:18.857Z,956.15
2019-01-29T06:59:18.847Z,956.16
2019-01-29T07:00:18.857Z,956.15
2019-01-29T07:01:18.823Z,956.18
2019-01-29T07:02:18.816Z,956.14
2019-01-29T07:03:18.810Z,956.20
2019-01-29T07:04:18.811Z,956.20
2019-01-29T07:05:18.828Z,956.23
2019-01-29T07:06:18.767Z,956.21
2019-01-29T07:07:18.775Z,956.21
2019-01-29T07:08:18.751Z,956.25
2019-01-29T07:09:18.738Z,956.25
2019-01-29T07:10:18.741Z,956.21
2019-01-29T07:11:18.759Z,956.26
2019-01-29T07:12:18.706Z,956.27
2019-01-29T07:13:18.713Z,956.29
2019-01-29T07:14:18.696Z,956.35
2019-01-29T07:15:18.680Z,956.33
2019-01-29T07:16:18.686Z,956.37
2019-01-29T07:17:18.658Z,956.38
2019-01-29T07:18:18.645Z,956.32
2019-01-29T07:19:18.627Z,956.32
2019-01-29T07:20:18.616Z,956.40
2019-01-29T07:21:18.617Z,956.37
2019-01-29T07:22:18.605Z,956.37
2019-01-29T07:23:18.593Z,956.37
2019-01-29T07:24:18.570Z,956.39
2019-01-29T07:25:18.556Z,956.36
2019-01-29T07:26:18.564Z,956.35
2019-01-29T07:27:18.539Z,956.37
2019-01-29T07:28:18.525Z,956.42
2019-01-29T07:29:18.518Z,956.40
2019-01-29T07:30:18.563Z,956.40
2019-01-29T07:31:18.523Z,956.38
2019-01-29T07:32:18.512Z,956.41
2019-01-29T07:33:18.474Z,956.38
2019-01-29T07:34:18.492Z,956.39
2019-01-29T07:35:18.485Z,956.41
2019-01-29T07:36:18.454Z,956.43
2019-01-29T07:37:21.936Z,956.42
2019-01-29T07:38:18.463Z,956.49
2019-01-29T07:39:18.416Z,956.43
2019-01-29T07:40:18.399Z,956.46
2019-01-29T07:41:18.391Z,956.53
2019-01-29T07:42:18.376Z,956.50
2019-01-29T07:43:18.393Z,956.47
2019-01-29T07:44:18.356Z,956.46
2019-01-29T07:45:18.356Z,956.52
2019-01-29T07:46:18.350Z,956.47
2019-01-29T07:47:18.317Z,956.46
2019-01-29T07:48:18.312Z,956.48
2019-01-29T07:49:18.332Z,956.52
2019-01-29T07:50:18.284Z,956.54
2019-01-29T07:51:18.275Z,956.54
2019-01-29T07:52:18.281Z,956.47
2019-01-29T07:53:18.274Z,956.58
2019-01-29T07:54:18.264Z,956.60
2019-01-29T07:55:18.264Z,956.57
2019-01-29T07:56:18.306Z,956.58
2019-01-29T07:57:18.231Z,956.63
2019-01-29T07:58:18.224Z,956.58
2019-01-29T07:59:18.237Z,956.63
2019-01-29T08:00:18.264Z,956.63
2019-01-29T08:01:18.230Z,956.66
2019-01-29T08:02:18.165Z,956.65
2019-01-29T08:03:18.234Z,956.67
2019-01-29T08:04:18.221Z,956.64
2019-01-29T08:05:18.225Z,956.62
2019-01-29T08:06:18.215Z,956.58
2019-01-29T08:07:18.157Z,956.61
2019-01-29T08:08:18.175Z,956.65
2019-01-29T08:09:18.075Z,956.65
2019-01-29T08:10:18.134Z,956.62
2019-01-29T08:11:18.080Z,956.66
2019-01-29T08:12:18.044Z,956.67
2019-01-29T08:13:18.035Z,956.70
2019-01-29T08:14:18.063Z,956.66
2019-01-29T08:15:18.032Z,956.63
2019-01-29T08:16:18.010Z,956.62
2019-01-29T08:17:17.990Z,956.65
2019-01-29T08:18:17.979Z,956.63
2019-01-29T08:19:17.973Z,956.65
2019-01-29T08:20:17.986Z,956.66
2019-01-29T08:21:17.950Z,956.63
2019-01-29T08:22:17.966Z,956.59
2019-01-29T08:23:17.938Z,956.64
2019-01-29T08:24:17.939Z,956.62
2019-01-29T08:25:17.918Z,956.63
2019-01-29T08:26:17.919Z,956.66
2019-01-29T08:27:17.936Z,956.67
2019-01-29T08:28:17.891Z,956.67
2019-01-29T08:29:17.879Z,956.63
2019-01-29T08:30:17.859Z,956.68
2019-01-29T08:31:17.845Z,956.70
2019-01-29T08:32:17.836Z,956.70
2019-01-29T08:33:17.829Z,956.68
2019-01-29T08:34:17.814Z,956.67
2019-01-29T08:35:17.803Z,956.67
2019-01-29T08:36:17.819Z,956.70
2019-01-29T08:37:17.791Z,956.69
2019-01-29T08:38:17.817Z,956.67
2019-01-29T08:39:17.759Z,956.68
2019-01-29T08:40:17.766Z,956.72
2019-01-29T08:41:17.738Z,956.73
2019-01-29T08:42:17.726Z,956.73
2019-01-29T08:43:17.709Z,956.76
2019-01-29T08:44:17.805Z,956.75
2019-01-29T08:45:17.730Z,956.69
2019-01-29T08:46:17.730Z,956.74
2019-01-29T08:47:17.695Z,956.77
2019-01-29T08:48:17.651Z,956.76
2019-01-29T08:49:17.679Z,956.75
2019-01-29T08:50:17.636Z,956.74
2019-01-29T08:51:17.627Z,956.77
2019-01-29T08:52:17.705Z,956.67
2019-01-29T08:53:17.628Z,956.65
2019-01-29T08:54:17.593Z,956.65
2019-01-29T08:55:17.575Z,956.68
2019-01-29T08:56:17.566Z,956.67
2019-01-29T08:57:17.604Z,956.67
2019-01-29T08:58:17.547Z,956.65
2019-01-29T08:59:17.604Z,956.63
2019-01-29T09:00:17.517Z,956.63
2019-01-29T09:01:17.517Z,956.65
2019-01-29T09:02:17.538Z,956.64
2019-01-29T09:03:17.521Z,956.63
2019-01-29T09:04:17.492Z,956.64
2019-01-29T09:05:17.507Z,956.65
2019-01-29T09:06:17.492Z,956.64
2019-01-29T09:07:17.469Z,956.66
2019-01-29T09:08:17.606Z,956.65
2019-01-29T09:09:17.428Z,956.64
2019-01-29T09:10:17.432Z,956.62
2019-01-29T09:11:17.429Z,956.62
2019-01-29T09:12:17.425Z,956.60
2019-01-29T09:13:17.390Z,956.58
2019-01-29T09:14:17.401Z,956.63
2019-01-29T09:15:17.380Z,956.62
2019-01-29T09:16:17.364Z,956.61
2019-01-29T09:17:17.333Z,956.65
2019-01-29T09:18:17.339Z,956.63
2019-01-29T09:19:17.311Z,956.62
2019-01-29T09:20:17.313Z,956.66
2019-01-29T09:21:17.298Z,956.62
2019-01-29T09:22:17.346Z,956.57
2019-01-29T09:23:17.265Z,956.61
2019-01-29T09:24:17.289Z,956.59
2019-01-29T09:25:20.933Z,956.57
2019-01-29T09:26:18.238Z,956.64
2019-01-29T09:27:17.228Z,956.59
2019-01-29T09:28:18.581Z,956.58
2019-01-29T09:29:17.787Z,956.58
2019-01-29T09:30:17.205Z,956.56
2019-01-29T09:31:17.225Z,956.51
2019-01-29T09:32:17.167Z,956.59
2019-01-29T09:33:17.191Z,956.57
2019-01-29T09:34:17.153Z,956.56
2019-01-29T09:35:17.166Z,956.59
2019-01-29T09:36:17.126Z,956.51
2019-01-29T09:37:17.128Z,956.55
2019-01-29T09:38:17.114Z,956.56
2019-01-29T09:39:17.128Z,956.55
2019-01-29T09:40:17.089Z,956.51
2019-01-29T09:41:17.070Z,956.58
2019-01-29T09:42:17.072Z,956.55
2019-01-29T09:43:17.059Z,956.48
2019-01-29T09:44:17.060Z,956.53
2019-01-29T09:45:17.043Z,956.46
2019-01-29T09:46:17.039Z,956.51
2019-01-29T09:47:17.006Z,956.44
2019-01-29T09:48:17.028Z,956.48
2019-01-29T09:49:17.021Z,956.49
2019-01-29T09:50:16.975Z,956.47
2019-01-29T09:51:16.984Z,956.49
2019-01-29T09:52:16.976Z,956.45
2019-01-29T09:53:16.963Z,956.49
2019-01-29T09:54:16.959Z,956.46
2019-01-29T09:55:16.912Z,956.46
2019-01-29T09:56:16.969Z,956.45
2019-01-29T09:57:16.906Z,956.47
2019-01-29T09:58:16.897Z,956.48
2019-01-29T09:59:16.881Z,956.46
2019-01-29T10:00:16.924Z,956.49
2019-01-29T10:01:16.874Z,956.46
2019-01-29T10:02:16.871Z,956.46
2019-01-29T10:03:16.843Z,956.49
2019-01-29T10:04:16.860Z,956.48
2019-01-29T10:05:16.806Z,956.50
2019-01-29T10:06:16.790Z,956.47
2019-01-29T10:07:16.808Z,956.43
2019-01-29T10:08:16.777Z,956.42
2019-01-29T10:09:16.782Z,956.40
2019-01-29T10:10:16.748Z,956.42
2019-01-29T10:11:16.748Z,956.37
2019-01-29T10:12:16.737Z,956.35
2019-01-29T10:13:16.714Z,956.36
2019-01-29T10:14:16.705Z,956.33
2019-01-29T10:15:16.701Z,956.34
2019-01-29T10:16:16.756Z,956.35
2019-01-29T10:17:16.685Z,956.33
2019-01-29T10:18:16.673Z,956.28
2019-01-29T10:19:16.658Z,956.27
2019-01-29T10:20:16.693Z,956.24
2019-01-29T10:21:16.644Z,956.27
2019-01-29T10:22:16.614Z,956.25
2019-01-29T10:23:16.645Z,956.21
2019-01-29T10:24:16.594Z,956.18
2019-01-29T10:25:16.616Z,956.14
2019-01-29T10:26:16.581Z,956.14
2019-01-29T10:27:16.555Z,956.16
2019-01-29T10:28:16.558Z,956.21
2019-01-29T10:29:16.544Z,956.17
2019-01-29T10:30:16.535Z,956.14
2019-01-29T10:31:16.541Z,956.13
2019-01-29T10:32:16.518Z,956.15
2019-01-29T10:33:16.540Z,956.15
2019-01-29T10:34:16.510Z,956.16
2019-01-29T10:35:16.499Z,956.19
2019-01-29T10:36:16.468Z,956.15
2019-01-29T10:37:16.451Z,956.13
2019-01-29T10:38:16.469Z,956.15
2019-01-29T10:39:16.460Z,956.18
2019-01-29T10:40:16.427Z,956.21
2019-01-29T10:41:16.401Z,956.14
2019-01-29T10:42:16.408Z,956.11
2019-01-29T10:43:16.391Z,956.09
2019-01-29T10:44:16.378Z,956.08
2019-01-29T10:45:16.374Z,956.09
2019-01-29T10:46:16.389Z,956.02
2019-01-29T10:47:16.339Z,956.03
2019-01-29T10:48:16.354Z,956.01
2019-01-29T10:49:16.326Z,956.01
2019-01-29T10:50:16.316Z,955.98
2019-01-29T10:51:16.311Z,955.94
2019-01-29T10:52:16.281Z,955.95
2019-01-29T10:53:16.285Z,955.95
2019-01-29T10:54:16.301Z,955.96
2019-01-29T10:55:16.275Z,955.87
2019-01-29T10:56:16.248Z,955.90
2019-01-29T10:57:16.240Z,955.82
2019-01-29T10:58:16.221Z,955.82
2019-01-29T10:59:16.220Z,955.86
2019-01-29T11:00:16.200Z,955.84
2019-01-29T11:01:16.184Z,955.80
2019-01-29T11:02:16.212Z,955.77
2019-01-29T11:03:16.183Z,955.76
2019-01-29T11:04:16.217Z,955.71
2019-01-29T11:05:16.160Z,955.74
2019-01-29T11:06:16.129Z,955.68
2019-01-29T11:07:16.117Z,955.67
2019-01-29T11:08:16.149Z,955.72
2019-01-29T11:09:16.111Z,955.58
2019-01-29T11:10:16.098Z,955.58
2019-01-29T11:11:16.081Z,955.62
2019-01-29T11:12:16.075Z,955.57
2019-01-29T11:13:16.076Z,955.58
2019-01-29T11:14:16.061Z,955.61
2019-01-29T11:15:16.048Z,955.50
2019-01-29T11:16:16.040Z,955.50
2019-01-29T11:17:16.044Z,955.50
2019-01-29T11:18:16.010Z,955.54
2019-01-29T11:19:16.132Z,955.50
2019-01-29T11:20:16.014Z,955.48
2019-01-29T11:21:15.986Z,955.51
2019-01-29T11:22:15.958Z,955.50
2019-01-29T11:23:15.963Z,955.42
2019-01-29T11:24:15.938Z,955.50
2019-01-29T11:25:15.928Z,955.46
2019-01-29T11:26:15.926Z,955.45
2019-01-29T11:27:15.912Z,955.38
2019-01-29T11:28:16.555Z,955.39
2019-01-29T11:29:15.896Z,955.37
2019-01-29T11:30:15.878Z,955.39
2019-01-29T11:31:15.857Z,955.41
2019-01-29T11:32:15.840Z,955.35
2019-01-29T11:33:15.832Z,955.31
2019-01-29T11:34:15.851Z,955.32
2019-01-29T11:35:15.856Z,955.30
2019-01-29T11:36:15.811Z,955.29
2019-01-29T11:37:15.794Z,955.30
2019-01-29T11:38:15.780Z,955.27
2019-01-29T11:39:15.784Z,955.29
2019-01-29T11:40:15.751Z,955.30
2019-01-29T11:41:15.742Z,955.28
2019-01-29T11:42:15.754Z,955.23
2019-01-29T11:43:16.591Z,955.25
2019-01-29T11:44:15.728Z,955.34
2019-01-29T11:45:15.694Z,955.31
2019-01-29T11:46:15.689Z,955.24
2019-01-29T11:47:15.705Z,955.23
2019-01-29T11:48:15.697Z,955.21
2019-01-29T11:49:15.682Z,955.26
2019-01-29T11:50:15.666Z,955.23
2019-01-29T11:51:15.641Z,955.25
2019-01-29T11:52:15.648Z,955.25
2019-01-29T11:53:15.644Z,955.19
2019-01-29T11:54:15.611Z,955.20
2019-01-29T11:55:15.595Z,955.19
2019-01-29T11:56:15.691Z,955.19
2019-01-29T11:57:15.564Z,955.16
2019-01-29T11:58:15.613Z,955.14
2019-01-29T11:59:15.545Z,955.14
2019-01-29T12:00:15.531Z,955.12
2019-01-29T12:01:15.521Z,955.11
2019-01-29T12:02:15.514Z,955.15
2019-01-29T12:03:15.496Z,955.09
2019-01-29T12:04:15.511Z,955.11
2019-01-29T12:05:15.473Z,955.13
2019-01-29T12:06:15.465Z,955.08
2019-01-29T12:07:15.454Z,955.10
2019-01-29T12:08:15.508Z,955.07
2019-01-29T12:09:15.448Z,955.09
2019-01-29T12:10:15.420Z,955.03
2019-01-29T12:11:15.408Z,955.05
2019-01-29T12:12:15.398Z,954.97
2019-01-29T12:13:15.390Z,954.99
2019-01-29T12:14:15.373Z,954.95
2019-01-29T12:15:15.399Z,954.97
2019-01-29T12:16:15.369Z,955.01
2019-01-29T12:17:15.339Z,954.94
2019-01-29T12:18:15.356Z,954.92
2019-01-29T12:19:15.318Z,954.94
2019-01-29T12:20:15.312Z,954.96
2019-01-29T12:21:15.326Z,954.93
2019-01-29T12:22:15.284Z,954.91
2019-01-29T12:23:15.286Z,954.92
2019-01-29T12:24:15.266Z,954.85
2019-01-29T12:25:15.255Z,954.83
2019-01-29T12:26:15.285Z,954.76
2019-01-29T12:27:15.249Z,954.82
2019-01-29T12:28:15.276Z,954.78